sensor_id;sensor_type;location;lat;lon;timestamp;pressure;altitude;pressure_sealevel;temperature;humidity
58622;BME280;44389;51.578;5.456;2023-01-01T00:02:07;100718.59;;;15.15;55.61
58622;BME280;44389;51.578;5.456;2023-01-01T00:04:33;100709.91;;;15.10;56.26
58622;BME280;44389;51.578;5.456;2023-01-01T00:07:01;100723.78;;;15.15;55.05
58622;BME280;44389;51.578;5.456;2023-01-01T00:09:26;100728.13;;;15.18;54.52
58622;BME280;44389;51.578;5.456;2023-01-01T00:12:10;100730.66;;;15.10;55.35
58622;BME280;44389;51.578;5.456;2023-01-01T00:14:35;100743.63;;;15.10;54.82
58622;BME280;44389;51.578;5.456;2023-01-01T00:17:01;100731.56;;;15.12;54.43
58622;BME280;44389;51.578;5.456;2023-01-01T00:19:26;100742.78;;;15.11;54.63
58622;BME280;44389;51.578;5.456;2023-01-01T00:21:52;100734.97;;;15.08;54.58
58622;BME280;44389;51.578;5.456;2023-01-01T00:24:18;100749.66;;;15.05;54.83
58622;BME280;44389;51.578;5.456;2023-01-01T00:26:43;100734.09;;;15.06;53.83
58622;BME280;44389;51.578;5.456;2023-01-01T00:29:08;100732.31;;;15.01;54.38
58622;BME280;44389;51.578;5.456;2023-01-01T00:31:34;100750.47;;;14.99;54.40
58622;BME280;44389;51.578;5.456;2023-01-01T00:33:59;100737.53;;;15.02;53.81
58622;BME280;44389;51.578;5.456;2023-01-01T00:36:26;100724.53;;;15.02;53.99
58622;BME280;44389;51.578;5.456;2023-01-01T00:38:52;100728.88;;;15.05;53.21
58622;BME280;44389;51.578;5.456;2023-01-01T00:41:17;100742.72;;;15.02;53.96
58622;BME280;44389;51.578;5.456;2023-01-01T00:43:43;100712.59;;;15.20;52.88
58622;BME280;44389;51.578;5.456;2023-01-01T00:46:09;100725.50;;;15.12;53.67
58622;BME280;44389;51.578;5.456;2023-01-01T00:48:35;100733.25;;;15.10;53.74
58622;BME280;44389;51.578;5.456;2023-01-01T00:51:01;100744.47;;;15.06;54.00
58622;BME280;44389;51.578;5.456;2023-01-01T00:53:26;100740.16;;;15.07;54.13
58622;BME280;44389;51.578;5.456;2023-01-01T00:55:52;100720.28;;;15.10;53.51
58622;BME280;44389;51.578;5.456;2023-01-01T00:58:18;100724.66;;;15.14;53.10
58622;BME280;44389;51.578;5.456;2023-01-01T01:00:43;100736.72;;;15.09;53.71
58622;BME280;44389;51.578;5.456;2023-01-01T01:03:10;100755.69;;;15.04;54.03
58622;BME280;44389;51.578;5.456;2023-01-01T01:05:55;100747.81;;;14.94;54.69
58622;BME280;44389;51.578;5.456;2023-01-01T01:08:21;100746.97;;;14.94;54.96
58622;BME280;44389;51.578;5.456;2023-01-01T01:10:46;100742.56;;;14.88;54.85
58622;BME280;44389;51.578;5.456;2023-01-01T01:13:11;100765.94;;;14.90;55.25
58622;BME280;44389;51.578;5.456;2023-01-01T01:15:37;100753.78;;;14.86;55.16
58622;BME280;44389;51.578;5.456;2023-01-01T01:18:03;100745.22;;;14.93;54.47
58622;BME280;44389;51.578;5.456;2023-01-01T01:20:28;100744.31;;;14.91;55.19
58622;BME280;44389;51.578;5.456;2023-01-01T01:22:53;100733.94;;;14.89;55.05
58622;BME280;44389;51.578;5.456;2023-01-01T01:25:18;100735.69;;;14.90;54.89
58622;BME280;44389;51.578;5.456;2023-01-01T01:27:44;100748.59;;;14.84;55.42
58622;BME280;44389;51.578;5.456;2023-01-01T01:30:09;100754.56;;;14.77;56.07
58622;BME280;44389;51.578;5.456;2023-01-01T01:32:34;100750.19;;;14.71;56.55
58622;BME280;44389;51.578;5.456;2023-01-01T01:35:00;100770.13;;;14.77;55.62
58622;BME280;44389;51.578;5.456;2023-01-01T01:37:25;100779.56;;;14.70;56.38
58622;BME280;44389;51.578;5.456;2023-01-01T01:39:50;100761.38;;;14.67;56.02
58622;BME280;44389;51.578;5.456;2023-01-01T01:42:17;100770.91;;;14.68;55.86
58622;BME280;44389;51.578;5.456;2023-01-01T01:47:33;100764.72;;;14.61;55.96
58622;BME280;44389;51.578;5.456;2023-01-01T01:50:05;100777.66;;;14.57;56.13
58622;BME280;44389;51.578;5.456;2023-01-01T01:52:33;100769.78;;;14.49;56.45
58622;BME280;44389;51.578;5.456;2023-01-01T01:55:02;100776.56;;;14.41;56.64
58622;BME280;44389;51.578;5.456;2023-01-01T01:57:29;100786.09;;;14.40;56.16
58622;BME280;44389;51.578;5.456;2023-01-01T01:59:56;100794.78;;;14.42;55.83
58622;BME280;44389;51.578;5.456;2023-01-01T02:02:33;100782.66;;;14.41;55.95
58622;BME280;44389;51.578;5.456;2023-01-01T02:05:01;100793.84;;;14.37;55.80
58622;BME280;44389;51.578;5.456;2023-01-01T02:07:29;100801.53;;;14.31;56.41
58622;BME280;44389;51.578;5.456;2023-01-01T02:09:56;100806.66;;;14.28;56.23
58622;BME280;44389;51.578;5.456;2023-01-01T02:12:22;100808.41;;;14.29;55.80
58622;BME280;44389;51.578;5.456;2023-01-01T02:14:48;100798.88;;;14.28;55.95
58622;BME280;44389;51.578;5.456;2023-01-01T02:17:23;100809.22;;;14.26;55.76
58622;BME280;44389;51.578;5.456;2023-01-01T02:30:10;100804.75;;;14.14;55.96
58622;BME280;44389;51.578;5.456;2023-01-01T02:32:53;100794.34;;;14.11;56.70
58622;BME280;44389;51.578;5.456;2023-01-01T02:35:25;100807.31;;;14.11;55.72
58622;BME280;44389;51.578;5.456;2023-01-01T02:38:39;100801.19;;;14.06;56.04
58622;BME280;44389;51.578;5.456;2023-01-01T02:41:08;100802.88;;;14.04;56.29
58622;BME280;44389;51.578;5.456;2023-01-01T02:43:35;100804.59;;;14.02;56.34
58622;BME280;44389;51.578;5.456;2023-01-01T02:46:05;100796.75;;;13.97;56.56
58622;BME280;44389;51.578;5.456;2023-01-01T02:51:13;100814.88;;;13.99;56.28
58622;BME280;44389;51.578;5.456;2023-01-01T02:56:40;100813.09;;;13.95;56.82
58622;BME280;44389;51.578;5.456;2023-01-01T03:07:56;100814.75;;;13.90;57.22
58622;BME280;44389;51.578;5.456;2023-01-01T03:10:22;100825.13;;;13.90;57.28
58622;BME280;44389;51.578;5.456;2023-01-01T03:15:55;100818.19;;;13.89;58.02
58622;BME280;44389;51.578;5.456;2023-01-01T03:18:28;100825.03;;;13.83;58.37
58622;BME280;44389;51.578;5.456;2023-01-01T03:20:57;100840.53;;;13.80;58.93
58622;BME280;44389;51.578;5.456;2023-01-01T03:23:30;100837.91;;;13.79;58.95
58622;BME280;44389;51.578;5.456;2023-01-01T03:26:04;100837.81;;;13.74;59.78
58622;BME280;44389;51.578;5.456;2023-01-01T03:28:45;100837.00;;;13.75;60.01
58622;BME280;44389;51.578;5.456;2023-01-01T03:31:15;100845.63;;;13.77;59.33
58622;BME280;44389;51.578;5.456;2023-01-01T03:33:46;100842.97;;;13.71;60.20
58622;BME280;44389;51.578;5.456;2023-01-01T03:36:34;100833.50;;;13.73;60.36
58622;BME280;44389;51.578;5.456;2023-01-01T03:39:09;100838.63;;;13.70;60.31
58622;BME280;44389;51.578;5.456;2023-01-01T03:41:39;100855.97;;;13.74;60.22
58622;BME280;44389;51.578;5.456;2023-01-01T03:44:11;100842.06;;;13.69;60.83
58622;BME280;44389;51.578;5.456;2023-01-01T03:46:39;100852.47;;;13.72;60.63
58622;BME280;44389;51.578;5.456;2023-01-01T03:49:07;100862.78;;;13.69;60.98
58622;BME280;44389;51.578;5.456;2023-01-01T03:54:28;100867.97;;;13.69;61.32
58622;BME280;44389;51.578;5.456;2023-01-01T04:00:14;100876.69;;;13.74;60.72
58622;BME280;44389;51.578;5.456;2023-01-01T04:02:20;100860.22;;;13.71;61.17
58622;BME280;44389;51.578;5.456;2023-01-01T04:04:51;100869.72;;;13.70;61.24
58622;BME280;44389;51.578;5.456;2023-01-01T04:07:16;100878.31;;;13.69;61.35
58622;BME280;44389;51.578;5.456;2023-01-01T04:09:47;100872.19;;;13.64;61.68
58622;BME280;44389;51.578;5.456;2023-01-01T04:12:15;100877.31;;;13.61;61.97
58622;BME280;44389;51.578;5.456;2023-01-01T04:14:41;100872.28;;;13.69;61.33
58622;BME280;44389;51.578;5.456;2023-01-01T04:17:09;100881.72;;;13.65;62.21
58622;BME280;44389;51.578;5.456;2023-01-01T04:19:34;100871.38;;;13.68;61.74
58622;BME280;44389;51.578;5.456;2023-01-01T04:22:00;100883.47;;;13.68;61.96
58622;BME280;44389;51.578;5.456;2023-01-01T04:24:25;100895.47;;;13.61;62.76
58622;BME280;44389;51.578;5.456;2023-01-01T04:26:52;100894.59;;;13.62;62.40
58622;BME280;44389;51.578;5.456;2023-01-01T04:29:18;100885.94;;;13.60;62.75
58622;BME280;44389;51.578;5.456;2023-01-01T04:31:43;100874.66;;;13.58;62.84
58622;BME280;44389;51.578;5.456;2023-01-01T04:34:09;100871.13;;;13.53;63.30
58622;BME280;44389;51.578;5.456;2023-01-01T04:36:35;100882.38;;;13.55;63.19
58622;BME280;44389;51.578;5.456;2023-01-01T04:39:01;100890.09;;;13.52;63.83
58622;BME280;44389;51.578;5.456;2023-01-01T04:41:26;100891.78;;;13.49;63.76
58622;BME280;44389;51.578;5.456;2023-01-01T04:43:52;100909.91;;;13.49;63.81
58622;BME280;44389;51.578;5.456;2023-01-01T04:46:18;100908.97;;;13.46;64.18
58622;BME280;44389;51.578;5.456;2023-01-01T04:48:45;100906.38;;;13.44;64.46
58622;BME280;44389;51.578;5.456;2023-01-01T04:51:11;100891.63;;;13.40;64.91
58622;BME280;44389;51.578;5.456;2023-01-01T04:53:38;100906.28;;;13.40;65.03
58622;BME280;44389;51.578;5.456;2023-01-01T04:56:04;100912.34;;;13.40;65.13
58622;BME280;44389;51.578;5.456;2023-01-01T04:58:30;100917.47;;;13.39;65.35
58622;BME280;44389;51.578;5.456;2023-01-01T05:00:55;100910.59;;;13.39;65.44
58622;BME280;44389;51.578;5.456;2023-01-01T05:03:20;100917.50;;;13.40;65.84
58622;BME280;44389;51.578;5.456;2023-01-01T05:05:46;100925.22;;;13.39;65.84
58622;BME280;44389;51.578;5.456;2023-01-01T05:08:12;100934.66;;;13.35;66.39
58622;BME280;44389;51.578;5.456;2023-01-01T05:10:38;100940.72;;;13.37;66.27
58622;BME280;44389;51.578;5.456;2023-01-01T05:13:05;100944.09;;;13.34;66.34
58622;BME280;44389;51.578;5.456;2023-01-01T05:15:31;100939.81;;;13.35;66.49
58622;BME280;44389;51.578;5.456;2023-01-01T05:17:56;100943.16;;;13.31;67.09
58622;BME280;44389;51.578;5.456;2023-01-01T05:20:21;100947.47;;;13.30;67.02
58622;BME280;44389;51.578;5.456;2023-01-01T05:22:46;100952.59;;;13.27;67.50
58622;BME280;44389;51.578;5.456;2023-01-01T05:25:12;100970.63;;;13.23;67.98
58622;BME280;44389;51.578;5.456;2023-01-01T05:27:37;100976.63;;;13.22;68.17
58622;BME280;44389;51.578;5.456;2023-01-01T05:30:03;100993.88;;;13.20;68.38
58622;BME280;44389;51.578;5.456;2023-01-01T05:32:28;100992.97;;;13.19;68.27
58622;BME280;44389;51.578;5.456;2023-01-01T05:34:53;100992.09;;;13.18;68.25
58622;BME280;44389;51.578;5.456;2023-01-01T05:37:20;100990.31;;;13.16;68.86
58622;BME280;44389;51.578;5.456;2023-01-01T05:39:45;100999.75;;;13.14;69.00
58622;BME280;44389;51.578;5.456;2023-01-01T05:42:11;101001.38;;;13.09;69.84
58622;BME280;44389;51.578;5.456;2023-01-01T05:44:36;100986.78;;;13.11;69.67
58622;BME280;44389;51.578;5.456;2023-01-01T05:47:02;100992.00;;;13.14;69.54
58622;BME280;44389;51.578;5.456;2023-01-01T05:49:27;101001.47;;;13.13;69.80
58622;BME280;44389;51.578;5.456;2023-01-01T05:51:52;100998.75;;;13.07;70.49
58622;BME280;44389;51.578;5.456;2023-01-01T05:54:18;101013.34;;;13.04;70.79
58622;BME280;44389;51.578;5.456;2023-01-01T05:56:43;101024.47;;;12.99;71.33
58622;BME280;44389;51.578;5.456;2023-01-01T05:59:09;101018.44;;;12.99;71.19
58622;BME280;44389;51.578;5.456;2023-01-01T06:01:35;101026.06;;;12.94;71.95
58622;BME280;44389;51.578;5.456;2023-01-01T06:04:00;101033.72;;;12.90;72.12
58622;BME280;44389;51.578;5.456;2023-01-01T06:06:27;101036.28;;;12.88;72.43
58622;BME280;44389;51.578;5.456;2023-01-01T06:08:54;101046.72;;;12.91;72.50
58622;BME280;44389;51.578;5.456;2023-01-01T06:11:19;101041.34;;;12.83;73.03
58622;BME280;44389;51.578;5.456;2023-01-01T06:13:45;101047.28;;;12.79;73.38
58622;BME280;44389;51.578;5.456;2023-01-01T06:16:10;101060.16;;;12.78;73.63
58622;BME280;44389;51.578;5.456;2023-01-01T06:18:36;101056.63;;;12.74;73.73
58622;BME280;44389;51.578;5.456;2023-01-01T06:21:09;101067.84;;;12.73;74.10
58622;BME280;44389;51.578;5.456;2023-01-01T06:23:35;101073.75;;;12.69;74.79
58622;BME280;44389;51.578;5.456;2023-01-01T06:26:21;101087.47;;;12.66;75.50
58622;BME280;44389;51.578;5.456;2023-01-01T06:28:47;101103.50;;;12.51;78.86
58622;BME280;44389;51.578;5.456;2023-01-01T06:31:15;101119.81;;;12.17;82.62
58622;BME280;44389;51.578;5.456;2023-01-01T06:33:41;101134.31;;;11.81;85.21
58622;BME280;44389;51.578;5.456;2023-01-01T06:36:09;101133.28;;;11.47;88.53
58622;BME280;44389;51.578;5.456;2023-01-01T06:38:36;101137.59;;;11.19;91.73
58622;BME280;44389;51.578;5.456;2023-01-01T06:41:09;101137.03;;;11.02;93.13
58622;BME280;44389;51.578;5.456;2023-01-01T06:43:35;101138.44;;;10.93;94.06
58622;BME280;44389;51.578;5.456;2023-01-01T06:46:18;101125.34;;;10.86;94.92
58622;BME280;44389;51.578;5.456;2023-01-01T06:48:45;101129.41;;;10.78;95.33
58622;BME280;44389;51.578;5.456;2023-01-01T06:51:14;101135.56;;;10.83;93.00
58622;BME280;44389;51.578;5.456;2023-01-01T06:53:39;101133.91;;;10.85;92.92
58622;BME280;44389;51.578;5.456;2023-01-01T06:56:05;101138.25;;;10.86;93.35
58622;BME280;44389;51.578;5.456;2023-01-01T06:58:30;101145.16;;;10.87;93.51
58622;BME280;44389;51.578;5.456;2023-01-01T07:01:04;101167.53;;;10.89;94.44
58622;BME280;44389;51.578;5.456;2023-01-01T07:03:29;101159.69;;;10.85;94.95
58622;BME280;44389;51.578;5.456;2023-01-01T07:05:54;101159.47;;;10.79;96.46
58622;BME280;44389;51.578;5.456;2023-01-01T07:08:20;101156.84;;;10.78;96.26
58622;BME280;44389;51.578;5.456;2023-01-01T07:10:45;101165.28;;;10.72;96.51
58622;BME280;44389;51.578;5.456;2023-01-01T07:13:10;101173.25;;;10.80;95.96
58622;BME280;44389;51.578;5.456;2023-01-01T07:15:35;101185.22;;;10.78;97.43
58622;BME280;44389;51.578;5.456;2023-01-01T07:18:01;101185.91;;;10.72;98.72
58622;BME280;44389;51.578;5.456;2023-01-01T07:20:27;101186.66;;;10.69;98.96
58622;BME280;44389;51.578;5.456;2023-01-01T07:22:52;101186.63;;;10.68;98.95
58622;BME280;44389;51.578;5.456;2023-01-01T07:25:17;101185.59;;;10.63;99.06
58622;BME280;44389;51.578;5.456;2023-01-01T07:27:43;101185.50;;;10.61;98.57
58622;BME280;44389;51.578;5.456;2023-01-01T07:30:08;101197.44;;;10.58;97.38
58622;BME280;44389;51.578;5.456;2023-01-01T07:32:34;101188.84;;;10.59;96.07
58622;BME280;44389;51.578;5.456;2023-01-01T07:34:59;101199.97;;;10.56;96.21
58622;BME280;44389;51.578;5.456;2023-01-01T07:37:25;101207.63;;;10.54;95.48
58622;BME280;44389;51.578;5.456;2023-01-01T07:39:50;101215.19;;;10.50;94.79
58622;BME280;44389;51.578;5.456;2023-01-01T07:42:16;101206.56;;;10.49;93.60
58622;BME280;44389;51.578;5.456;2023-01-01T07:44:41;101223.75;;;10.49;91.64
58622;BME280;44389;51.578;5.456;2023-01-01T07:47:32;101219.47;;;10.49;91.04
58622;BME280;44389;51.578;5.456;2023-01-01T07:49:58;101215.84;;;10.44;91.43
58622;BME280;44389;51.578;5.456;2023-01-01T07:52:23;101230.25;;;10.39;91.88
58622;BME280;44389;51.578;5.456;2023-01-01T07:54:48;101230.25;;;10.39;91.93
58622;BME280;44389;51.578;5.456;2023-01-01T07:57:14;101248.06;;;10.33;92.97
58622;BME280;44389;51.578;5.456;2023-01-01T07:59:39;101251.22;;;10.26;95.09
58622;BME280;44389;51.578;5.456;2023-01-01T08:02:05;101251.94;;;10.21;95.96
58622;BME280;44389;51.578;5.456;2023-01-01T08:04:30;101271.59;;;10.19;96.81
58622;BME280;44389;51.578;5.456;2023-01-01T08:06:55;101281.78;;;10.16;97.43
58622;BME280;44389;51.578;5.456;2023-01-01T08:09:21;101295.38;;;10.12;98.56
58622;BME280;44389;51.578;5.456;2023-01-01T08:11:46;101312.41;;;10.09;100.00
58622;BME280;44389;51.578;5.456;2023-01-01T08:14:12;101318.06;;;10.00;100.00
58622;BME280;44389;51.578;5.456;2023-01-01T08:16:37;101314.13;;;9.87;100.00
58622;BME280;44389;51.578;5.456;2023-01-01T08:19:03;101313.59;;;9.75;100.00
58622;BME280;44389;51.578;5.456;2023-01-01T08:21:29;101307.22;;;9.65;100.00
58622;BME280;44389;51.578;5.456;2023-01-01T08:23:54;101307.84;;;9.59;100.00
58622;BME280;44389;51.578;5.456;2023-01-01T08:26:31;101313.63;;;9.53;100.00
58622;BME280;44389;51.578;5.456;2023-01-01T08:28:57;101309.97;;;9.48;100.00
58622;BME280;44389;51.578;5.456;2023-01-01T08:31:23;101307.19;;;9.44;100.00
58622;BME280;44389;51.578;5.456;2023-01-01T08:33:49;101308.91;;;9.43;100.00
58622;BME280;44389;51.578;5.456;2023-01-01T08:36:14;101313.25;;;9.44;100.00
58622;BME280;44389;51.578;5.456;2023-01-01T08:38:41;101301.19;;;9.43;100.00
58622;BME280;44389;51.578;5.456;2023-01-01T08:41:06;101320.91;;;9.43;100.00
58622;BME280;44389;51.578;5.456;2023-01-01T08:43:31;101315.75;;;9.43;100.00
58622;BME280;44389;51.578;5.456;2023-01-01T08:45:57;101333.81;;;9.44;100.00
58622;BME280;44389;51.578;5.456;2023-01-01T08:48:22;101333.81;;;9.44;100.00
58622;BME280;44389;51.578;5.456;2023-01-01T08:50:54;101349.25;;;9.44;100.00
58622;BME280;44389;51.578;5.456;2023-01-01T08:53:20;101352.75;;;9.46;100.00
58622;BME280;44389;51.578;5.456;2023-01-01T08:56:09;101362.25;;;9.47;100.00
58622;BME280;44389;51.578;5.456;2023-01-01T08:58:35;101361.44;;;9.48;100.00
58622;BME280;44389;51.578;5.456;2023-01-01T09:01:01;101347.75;;;9.49;100.00
58622;BME280;44389;51.578;5.456;2023-01-01T09:03:27;101341.72;;;9.49;100.00
58622;BME280;44389;51.578;5.456;2023-01-01T09:05:53;101340.00;;;9.48;100.00
58622;BME280;44389;51.578;5.456;2023-01-01T09:08:19;101339.16;;;9.49;100.00
58622;BME280;44389;51.578;5.456;2023-01-01T09:10:44;101344.38;;;9.50;100.00
58622;BME280;44389;51.578;5.456;2023-01-01T09:13:10;101336.72;;;9.52;100.00
58622;BME280;44389;51.578;5.456;2023-01-01T09:15:36;101335.81;;;9.51;100.00
58622;BME280;44389;51.578;5.456;2023-01-01T09:18:02;101341.06;;;9.53;100.00
58622;BME280;44389;51.578;5.456;2023-01-01T09:20:27;101346.22;;;9.53;100.00
58622;BME280;44389;51.578;5.456;2023-01-01T09:22:52;101351.41;;;9.54;100.00
58622;BME280;44389;51.578;5.456;2023-01-01T09:25:18;101341.13;;;9.54;100.00
58622;BME280;44389;51.578;5.456;2023-01-01T09:27:43;101346.25;;;9.54;100.00
58622;BME280;44389;51.578;5.456;2023-01-01T09:30:09;101348.94;;;9.58;100.00
58622;BME280;44389;51.578;5.456;2023-01-01T09:32:34;101348.16;;;9.59;100.00
58622;BME280;44389;51.578;5.456;2023-01-01T09:34:59;101355.88;;;9.59;100.00
58622;BME280;44389;51.578;5.456;2023-01-01T09:37:25;101366.28;;;9.62;100.00
58622;BME280;44389;51.578;5.456;2023-01-01T09:39:51;101362.84;;;9.61;100.00
58622;BME280;44389;51.578;5.456;2023-01-01T09:49:57;101365.34;;;9.60;100.00
58622;BME280;44389;51.578;5.456;2023-01-01T09:52:32;101368.72;;;9.59;100.00
58622;BME280;44389;51.578;5.456;2023-01-01T09:55:17;101368.66;;;9.57;100.00
58622;BME280;44389;51.578;5.456;2023-01-01T09:57:44;101366.03;;;9.55;100.00
58622;BME280;44389;51.578;5.456;2023-01-01T10:00:14;101361.81;;;9.58;100.00
58622;BME280;44389;51.578;5.456;2023-01-01T10:08:19;101356.81;;;9.61;100.00
58622;BME280;44389;51.578;5.456;2023-01-01T10:13:50;101358.75;;;9.66;100.00
58622;BME280;44389;51.578;5.456;2023-01-01T10:16:37;101365.63;;;9.66;100.00
58622;BME280;44389;51.578;5.456;2023-01-01T10:19:23;101357.06;;;9.67;100.00
58622;BME280;44389;51.578;5.456;2023-01-01T10:21:52;101351.91;;;9.67;100.00
58622;BME280;44389;51.578;5.456;2023-01-01T10:24:40;101357.19;;;9.70;100.00
58622;BME280;44389;51.578;5.456;2023-01-01T10:27:23;101361.59;;;9.72;100.00
58622;BME280;44389;51.578;5.456;2023-01-01T10:29:50;101358.44;;;9.80;100.00
58622;BME280;44389;51.578;5.456;2023-01-01T10:32:19;101364.66;;;9.85;100.00
58622;BME280;44389;51.578;5.456;2023-01-01T10:34:45;101365.81;;;9.92;100.00
58622;BME280;44389;51.578;5.456;2023-01-01T10:37:12;101372.13;;;10.00;100.00
58622;BME280;44389;51.578;5.456;2023-01-01T10:39:39;101366.47;;;10.09;100.00
58622;BME280;44389;51.578;5.456;2023-01-01T10:42:05;101359.88;;;10.15;100.00
58622;BME280;44389;51.578;5.456;2023-01-01T10:44:33;101362.56;;;10.18;100.00
58622;BME280;44389;51.578;5.456;2023-01-01T10:47:04;101362.69;;;10.21;100.00
58622;BME280;44389;51.578;5.456;2023-01-01T10:49:33;101355.25;;;10.29;100.00
58622;BME280;44389;51.578;5.456;2023-01-01T10:51:58;101364.13;;;10.36;100.00
58622;BME280;44389;51.578;5.456;2023-01-01T10:54:30;101375.59;;;10.44;100.00
58622;BME280;44389;51.578;5.456;2023-01-01T10:56:57;101368.06;;;10.49;100.00
58622;BME280;44389;51.578;5.456;2023-01-01T10:59:32;101367.53;;;10.58;100.00
58622;BME280;44389;51.578;5.456;2023-01-01T11:02:20;101366.34;;;10.72;100.00
58622;BME280;44389;51.578;5.456;2023-01-01T11:04:46;101377.28;;;10.89;100.00
58622;BME280;44389;51.578;5.456;2023-01-01T11:07:27;101374.28;;;11.01;100.00
58622;BME280;44389;51.578;5.456;2023-01-01T11:09:59;101377.25;;;11.12;100.00
58622;BME280;44389;51.578;5.456;2023-01-01T11:12:28;101392.88;;;11.16;100.00
58622;BME280;44389;51.578;5.456;2023-01-01T11:14:56;101388.75;;;11.22;100.00
58622;BME280;44389;51.578;5.456;2023-01-01T11:17:29;101390.75;;;11.29;100.00
58622;BME280;44389;51.578;5.456;2023-01-01T11:19:57;101396.91;;;11.32;100.00
58622;BME280;44389;51.578;5.456;2023-01-01T11:22:42;101397.19;;;11.40;100.00
58622;BME280;44389;51.578;5.456;2023-01-01T11:25:23;101400.81;;;11.45;100.00
58622;BME280;44389;51.578;5.456;2023-01-01T11:27:49;101400.06;;;11.49;100.00
58622;BME280;44389;51.578;5.456;2023-01-01T11:30:25;101395.13;;;11.56;100.00
58622;BME280;44389;51.578;5.456;2023-01-01T11:33:00;101393.59;;;11.61;99.99
58622;BME280;44389;51.578;5.456;2023-01-01T11:35:30;101398.84;;;11.64;100.00
58622;BME280;44389;51.578;5.456;2023-01-01T11:37:56;101378.41;;;11.70;100.00
58622;BME280;44389;51.578;5.456;2023-01-01T11:40:32;101387.94;;;11.73;100.00
58622;BME280;44389;51.578;5.456;2023-01-01T11:43:01;101387.16;;;11.75;97.56
58622;BME280;44389;51.578;5.456;2023-01-01T11:45:32;101380.28;;;11.76;98.09
58622;BME280;44389;51.578;5.456;2023-01-01T11:48:01;101367.38;;;11.76;96.80
58622;BME280;44389;51.578;5.456;2023-01-01T11:50:35;101369.09;;;11.75;96.98
58622;BME280;44389;51.578;5.456;2023-01-01T11:55:57;101375.91;;;11.73;96.32
58622;BME280;44389;51.578;5.456;2023-01-01T12:01:18;101378.59;;;11.76;96.23
58622;BME280;44389;51.578;5.456;2023-01-01T12:04:08;101379.56;;;11.80;95.62
58622;BME280;44389;51.578;5.456;2023-01-01T12:06:39;101380.47;;;11.80;95.04
58622;BME280;44389;51.578;5.456;2023-01-01T12:09:33;101388.47;;;11.88;93.52
58622;BME280;44389;51.578;5.456;2023-01-01T12:12:14;101387.69;;;11.91;93.26
58622;BME280;44389;51.578;5.456;2023-01-01T12:20:27;101382.16;;;12.06;92.58
58622;BME280;44389;51.578;5.456;2023-01-01T12:22:55;101378.75;;;12.07;93.65
58622;BME280;44389;51.578;5.456;2023-01-01T12:25:22;101374.47;;;12.07;90.17
58622;BME280;44389;51.578;5.456;2023-01-01T12:28:07;101370.25;;;12.11;91.10
58622;BME280;44389;51.578;5.456;2023-01-01T12:30:46;101376.41;;;12.14;89.75
58622;BME280;44389;51.578;5.456;2023-01-01T12:36:24;101371.63;;;12.27;89.28
58622;BME280;44389;51.578;5.456;2023-01-01T12:42:03;101369.13;;;12.30;85.84
58622;BME280;44389;51.578;5.456;2023-01-01T12:47:41;101380.13;;;12.23;87.91
58622;BME280;44389;51.578;5.456;2023-01-01T12:52:47;101367.91;;;12.18;86.33
58622;BME280;44389;51.578;5.456;2023-01-01T12:58:34;101367.81;;;12.15;85.71
58622;BME280;44389;51.578;5.456;2023-01-01T13:01:12;101372.13;;;12.15;86.12
58622;BME280;44389;51.578;5.456;2023-01-01T13:04:11;101367.81;;;12.15;86.18
58622;BME280;44389;51.578;5.456;2023-01-01T13:06:42;101374.66;;;12.13;84.17
58622;BME280;44389;51.578;5.456;2023-01-01T13:09:13;101373.72;;;12.11;85.10
58622;BME280;44389;51.578;5.456;2023-01-01T13:11:40;101358.06;;;12.07;85.10
58622;BME280;44389;51.578;5.456;2023-01-01T13:14:07;101350.28;;;12.05;84.93
58622;BME280;44389;51.578;5.456;2023-01-01T13:16:38;101353.69;;;12.04;84.12
58622;BME280;44389;51.578;5.456;2023-01-01T13:19:05;101358.84;;;12.04;84.72
58622;BME280;44389;51.578;5.456;2023-01-01T13:21:46;101365.09;;;12.11;84.42
58622;BME280;44389;51.578;5.456;2023-01-01T13:24:20;101363.59;;;12.17;83.57
58622;BME280;44389;51.578;5.456;2023-01-01T13:26:45;101363.69;;;12.21;83.74
58622;BME280;44389;51.578;5.456;2023-01-01T13:40:01;101355.84;;;12.17;83.77
58622;BME280;44389;51.578;5.456;2023-01-01T13:45:42;101354.94;;;12.17;84.58
58622;BME280;44389;51.578;5.456;2023-01-01T13:48:19;101359.13;;;12.13;82.83
58622;BME280;44389;51.578;5.456;2023-01-01T14:01:53;101360.41;;;11.99;83.79
58622;BME280;44389;51.578;5.456;2023-01-01T14:04:31;101363.66;;;11.93;84.48
58622;BME280;44389;51.578;5.456;2023-01-01T14:07:12;101352.38;;;11.91;83.27
58622;BME280;44389;51.578;5.456;2023-01-01T14:09:40;101355.69;;;11.87;84.62
58622;BME280;44389;51.578;5.456;2023-01-01T14:12:15;101362.50;;;11.85;84.32
58622;BME280;44389;51.578;5.456;2023-01-01T14:14:40;101364.22;;;11.84;83.75
58622;BME280;44389;51.578;5.456;2023-01-01T14:17:06;101378.69;;;11.79;84.51
58622;BME280;44389;51.578;5.456;2023-01-01T14:19:32;101378.59;;;11.76;84.66
58622;BME280;44389;51.578;5.456;2023-01-01T14:21:58;101381.13;;;11.75;84.93
58622;BME280;44389;51.578;5.456;2023-01-01T14:24:25;101378.34;;;11.68;85.53
58622;BME280;44389;51.578;5.456;2023-01-01T14:26:51;101373.09;;;11.67;85.38
58622;BME280;44389;51.578;5.456;2023-01-01T14:31:50;101371.38;;;11.66;85.70
58622;BME280;44389;51.578;5.456;2023-01-01T14:34:30;101373.03;;;11.64;86.50
58622;BME280;44389;51.578;5.456;2023-01-01T14:36:58;101366.81;;;11.59;86.39
58622;BME280;44389;51.578;5.456;2023-01-01T14:39:26;101365.88;;;11.57;87.11
58622;BME280;44389;51.578;5.456;2023-01-01T14:41:53;101366.72;;;11.56;86.95
58622;BME280;44389;51.578;5.456;2023-01-01T14:44:22;101370.13;;;11.55;86.76
58622;BME280;44389;51.578;5.456;2023-01-01T14:46:51;101375.16;;;11.51;87.39